createdAt,value
2018-04-15T00:00:05.197Z,0.00
2018-04-15T00:01:05.223Z,0.00
2018-04-15T00:02:05.249Z,0.00
2018-04-15T00:03:05.276Z,0.00
2018-04-15T00:04:05.303Z,0.00
2018-04-15T00:05:05.367Z,0.00
2018-04-15T00:06:05.356Z,0.00
2018-04-15T00:07:05.383Z,0.00
2018-04-15T00:08:05.413Z,0.00
2018-04-15T00:09:05.439Z,0.00
2018-04-15T00:10:05.463Z,0.00
2018-04-15T00:11:05.491Z,0.00
2018-04-15T00:12:05.558Z,0.00
2018-04-15T00:13:05.544Z,0.00
2018-04-15T00:14:05.571Z,0.00
2018-04-15T00:15:05.597Z,0.00
2018-04-15T00:16:05.623Z,0.00
2018-04-15T00:17:05.651Z,0.00
2018-04-15T00:18:05.677Z,0.00
2018-04-15T00:19:05.709Z,0.00
2018-04-15T00:20:05.730Z,0.00
2018-04-15T00:21:05.758Z,0.00
2018-04-15T00:22:05.784Z,0.00
2018-04-15T00:23:05.811Z,0.00
2018-04-15T00:24:05.841Z,0.00
2018-04-15T00:25:05.885Z,0.00
2018-04-15T00:26:05.892Z,0.00
2018-04-15T00:27:05.919Z,0.00
2018-04-15T00:28:05.977Z,0.00
2018-04-15T00:29:05.974Z,0.00
2018-04-15T00:30:05.999Z,0.00
2018-04-15T00:31:06.026Z,0.00
2018-04-15T00:32:06.053Z,0.00
2018-04-15T00:33:06.080Z,0.00
2018-04-15T00:34:06.107Z,0.00
2018-04-15T00:35:06.133Z,0.00
2018-04-15T00:36:06.161Z,0.00
2018-04-15T00:37:06.187Z,0.00
2018-04-15T00:38:06.216Z,0.00
2018-04-15T00:39:06.240Z,0.00
2018-04-15T00:40:06.276Z,0.00
2018-04-15T00:41:06.299Z,0.00
2018-04-15T00:42:06.320Z,0.00
2018-04-15T00:43:06.346Z,0.00
2018-04-15T00:44:06.373Z,0.00
2018-04-15T00:45:06.400Z,0.00
2018-04-15T00:46:06.426Z,0.00
2018-04-15T00:47:06.452Z,0.00
2018-04-15T00:48:06.515Z,0.00
2018-04-15T00:49:06.507Z,0.00
2018-04-15T00:50:06.532Z,0.00
2018-04-15T00:51:06.560Z,0.00
2018-04-15T00:52:06.590Z,0.00
2018-04-15T00:53:06.614Z,0.00
2018-04-15T00:54:06.639Z,0.00
2018-04-15T00:55:06.666Z,0.00
2018-04-15T00:56:06.693Z,0.00
2018-04-15T00:57:06.762Z,0.00
2018-04-15T00:58:06.746Z,0.00
2018-04-15T00:59:06.774Z,0.00
2018-04-15T01:00:06.801Z,0.00
2018-04-15T01:01:06.828Z,0.00
2018-04-15T01:02:06.854Z,0.00
2018-04-15T01:03:06.880Z,0.00
2018-04-15T01:04:06.912Z,0.00
2018-04-15T01:05:06.935Z,0.00
2018-04-15T01:06:06.961Z,0.00
2018-04-15T01:07:06.988Z,0.00
2018-04-15T01:08:07.017Z,0.00
2018-04-15T01:09:07.042Z,0.00
2018-04-15T01:10:07.071Z,0.00
2018-04-15T01:11:07.095Z,0.00
2018-04-15T01:12:07.122Z,0.00
2018-04-15T01:13:07.177Z,0.00
2018-04-15T01:14:07.175Z,0.00
2018-04-15T01:15:07.202Z,0.00
2018-04-15T01:16:07.229Z,0.00
2018-04-15T01:17:07.257Z,0.00
2018-04-15T01:18:07.282Z,0.00
2018-04-15T01:19:07.309Z,0.00
2018-04-15T01:20:07.336Z,0.00
2018-04-15T01:21:07.363Z,0.00
2018-04-15T01:22:07.388Z,0.00
2018-04-15T01:23:07.417Z,0.00
2018-04-15T01:24:07.442Z,0.00
2018-04-15T01:25:07.469Z,0.00
2018-04-15T01:26:07.495Z,0.00
2018-04-15T01:27:07.525Z,0.00
2018-04-15T01:28:07.555Z,0.00
2018-04-15T01:29:07.575Z,0.00
2018-04-15T01:30:07.602Z,0.00
2018-04-15T01:31:07.628Z,0.00
2018-04-15T01:32:07.656Z,0.00
2018-04-15T01:33:07.683Z,0.00
2018-04-15T01:34:07.709Z,0.00
2018-04-15T01:35:07.736Z,0.00
2018-04-15T01:36:07.766Z,0.00
2018-04-15T01:37:07.789Z,0.00
2018-04-15T01:38:07.815Z,0.00
2018-04-15T01:39:07.842Z,0.00
2018-04-15T01:40:07.869Z,0.00
2018-04-15T01:41:07.896Z,0.00
2018-04-15T01:42:07.923Z,0.00
2018-04-15T01:43:07.949Z,0.00
2018-04-15T01:44:07.976Z,0.00
2018-04-15T01:45:08.042Z,0.00
2018-04-15T01:46:08.028Z,0.00
2018-04-15T01:47:08.056Z,0.00
2018-04-15T01:48:08.082Z,0.00
2018-04-15T01:49:08.110Z,0.00
2018-04-15T01:50:08.136Z,0.00
2018-04-15T01:51:08.162Z,0.00
2018-04-15T01:52:08.189Z,0.00
2018-04-15T01:53:08.216Z,0.00
2018-04-15T01:54:08.242Z,0.00
2018-04-15T01:55:08.269Z,0.00
2018-04-15T01:56:08.295Z,0.00
2018-04-15T01:57:08.323Z,0.00
2018-04-15T01:58:08.349Z,0.00
2018-04-15T01:59:08.397Z,0.00
2018-04-15T02:00:08.406Z,0.00
2018-04-15T02:01:08.429Z,0.00
2018-04-15T02:02:08.455Z,0.00
2018-04-15T02:03:08.482Z,0.00
2018-04-15T02:04:08.509Z,0.00
2018-04-15T02:05:08.539Z,0.00
2018-04-15T02:06:08.573Z,0.00
2018-04-15T02:07:08.589Z,0.00
2018-04-15T02:08:08.616Z,0.00
2018-04-15T02:09:08.646Z,0.00
2018-04-15T02:10:08.669Z,0.00
2018-04-15T02:11:08.696Z,0.00
2018-04-15T02:12:08.735Z,0.00
2018-04-15T02:13:08.751Z,0.00
2018-04-15T02:14:08.776Z,0.00
2018-04-15T02:15:08.804Z,0.00
2018-04-15T02:16:08.832Z,0.00
2018-04-15T02:17:08.858Z,0.00
2018-04-15T02:18:08.884Z,0.00
2018-04-15T02:19:08.911Z,0.00
2018-04-15T02:20:08.937Z,0.00
2018-04-15T02:21:08.990Z,0.00
2018-04-15T02:22:08.991Z,0.00
2018-04-15T02:23:09.018Z,0.00
2018-04-15T02:24:09.045Z,0.00
2018-04-15T02:25:09.071Z,0.00
2018-04-15T02:26:09.098Z,0.00
2018-04-15T02:27:09.124Z,0.00
2018-04-15T02:28:09.151Z,0.00
2018-04-15T02:29:09.178Z,0.00
2018-04-15T02:30:09.207Z,0.00
2018-04-15T02:31:09.231Z,0.00
2018-04-15T02:32:09.258Z,0.00
2018-04-15T02:33:09.299Z,0.00
2018-04-15T02:34:09.311Z,0.00
2018-04-15T02:35:09.337Z,0.00
2018-04-15T02:36:09.365Z,0.00
2018-04-15T02:37:09.392Z,0.00
2018-04-15T02:38:09.449Z,0.00
2018-04-15T02:39:09.445Z,0.00
2018-04-15T02:40:09.477Z,0.00
2018-04-15T02:41:09.503Z,0.00
2018-04-15T02:42:09.549Z,0.00
2018-04-15T02:43:09.551Z,0.00
2018-04-15T02:44:09.579Z,0.00
2018-04-15T02:45:09.610Z,0.00
2018-04-15T02:46:09.630Z,0.00
2018-04-15T02:47:09.660Z,0.00
2018-04-15T02:48:09.688Z,0.00
2018-04-15T02:49:09.711Z,0.00
2018-04-15T02:50:09.737Z,0.00
2018-04-15T02:51:09.764Z,0.00
2018-04-15T02:52:09.792Z,0.00
2018-04-15T02:53:09.818Z,0.00
2018-04-15T02:54:09.844Z,0.00
2018-04-15T02:55:09.871Z,0.00
2018-04-15T02:56:09.898Z,0.00
2018-04-15T02:57:09.929Z,0.00
2018-04-15T02:58:09.952Z,0.00
2018-04-15T02:59:09.983Z,0.00
2018-04-15T03:00:10.005Z,0.00
2018-04-15T03:01:10.036Z,0.00
2018-04-15T03:02:10.060Z,0.00
2018-04-15T03:03:10.094Z,0.00
2018-04-15T03:04:10.112Z,0.00
2018-04-15T03:05:10.139Z,0.00
2018-04-15T03:06:10.164Z,0.00
2018-04-15T03:07:10.191Z,0.00
2018-04-15T03:08:10.218Z,0.00
2018-04-15T03:09:10.257Z,0.00
2018-04-15T03:10:10.274Z,0.00
2018-04-15T03:11:10.299Z,0.00
2018-04-15T03:12:10.329Z,0.00
2018-04-15T03:13:10.351Z,0.00
2018-04-15T03:14:10.380Z,0.00
2018-04-15T03:15:10.405Z,0.00
2018-04-15T03:16:10.432Z,0.00
2018-04-15T03:17:10.459Z,0.00
2018-04-15T03:18:10.484Z,0.00
2018-04-15T03:19:10.512Z,0.00
2018-04-15T03:20:10.540Z,0.00
2018-04-15T03:21:10.566Z,5.63
2018-04-15T03:22:10.591Z,5.63
2018-04-15T03:23:10.617Z,5.63
2018-04-15T03:24:10.645Z,5.63
2018-04-15T03:25:10.672Z,5.63
2018-04-15T03:26:10.697Z,5.63
2018-04-15T03:27:10.724Z,5.63
2018-04-15T03:28:10.752Z,5.63
2018-04-15T03:29:10.778Z,5.63
2018-04-15T03:30:10.804Z,5.63
2018-04-15T03:31:10.832Z,5.63
2018-04-15T03:32:10.857Z,5.63
2018-04-15T03:33:10.885Z,5.63
2018-04-15T03:34:10.911Z,5.63
2018-04-15T03:35:10.938Z,5.63
2018-04-15T03:36:10.965Z,5.63
2018-04-15T03:37:10.992Z,5.63
2018-04-15T03:38:11.018Z,5.63
2018-04-15T03:39:11.044Z,5.63
2018-04-15T03:40:11.071Z,5.63
2018-04-15T03:41:11.099Z,5.63
2018-04-15T03:42:11.143Z,5.63
2018-04-15T03:43:11.152Z,5.63
2018-04-15T03:44:11.180Z,5.63
2018-04-15T03:45:11.205Z,11.25
2018-04-15T03:46:11.231Z,11.25
2018-04-15T03:47:11.264Z,11.25
2018-04-15T03:48:11.286Z,11.25
2018-04-15T03:49:11.312Z,11.25
2018-04-15T03:50:11.339Z,16.88
2018-04-15T03:51:11.370Z,16.88
2018-04-15T03:52:11.392Z,16.88
2018-04-15T03:53:11.420Z,16.88
2018-04-15T03:54:11.445Z,22.50
2018-04-15T03:55:11.473Z,22.50
2018-04-15T03:56:11.500Z,28.13
2018-04-15T03:57:11.527Z,33.75
2018-04-15T03:58:11.581Z,28.13
2018-04-15T03:59:11.588Z,28.13
2018-04-15T04:00:11.610Z,28.13
2018-04-15T04:01:11.635Z,28.13
2018-04-15T04:02:11.659Z,28.13
2018-04-15T04:03:11.686Z,28.13
2018-04-15T04:04:11.714Z,22.50
2018-04-15T04:05:11.741Z,22.50
2018-04-15T04:06:11.768Z,16.88
2018-04-15T04:07:11.794Z,16.88
2018-04-15T04:08:11.821Z,16.88
2018-04-15T04:09:11.852Z,22.50
2018-04-15T04:10:11.874Z,16.88
2018-04-15T04:11:11.901Z,16.88
2018-04-15T04:12:11.930Z,16.88
2018-04-15T04:13:11.963Z,16.88
2018-04-15T04:14:11.983Z,16.88
2018-04-15T04:15:12.009Z,16.88
2018-04-15T04:16:12.059Z,16.88
2018-04-15T04:17:12.063Z,22.50
2018-04-15T04:18:12.092Z,22.50
2018-04-15T04:19:12.115Z,22.50
2018-04-15T04:20:12.143Z,22.50
2018-04-15T04:21:12.170Z,16.88
2018-04-15T04:22:12.196Z,22.50
2018-04-15T04:23:12.223Z,28.13
2018-04-15T04:24:12.251Z,33.75
2018-04-15T04:25:12.278Z,22.50
2018-04-15T04:26:12.304Z,22.50
2018-04-15T04:27:12.331Z,33.75
2018-04-15T04:28:12.358Z,28.13
2018-04-15T04:29:12.385Z,16.88
2018-04-15T04:30:12.412Z,22.50
2018-04-15T04:31:12.439Z,28.13
2018-04-15T04:32:12.465Z,28.13
2018-04-15T04:33:12.493Z,22.50
2018-04-15T04:34:12.521Z,22.50
2018-04-15T04:35:12.547Z,22.50
2018-04-15T04:36:12.574Z,16.88
2018-04-15T04:37:12.601Z,22.50
2018-04-15T04:38:12.628Z,28.13
2018-04-15T04:39:12.654Z,39.38
2018-04-15T04:40:12.705Z,50.63
2018-04-15T04:41:12.708Z,61.88
2018-04-15T04:42:12.735Z,67.50
2018-04-15T04:43:12.761Z,67.50
2018-04-15T04:44:12.789Z,61.88
2018-04-15T04:45:12.816Z,56.25
2018-04-15T04:46:12.847Z,50.63
2018-04-15T04:47:12.870Z,45.00
2018-04-15T04:48:12.897Z,33.75
2018-04-15T04:49:12.924Z,33.75
2018-04-15T04:50:12.950Z,39.38
2018-04-15T04:51:12.977Z,33.75
2018-04-15T04:52:13.005Z,33.75
2018-04-15T04:53:13.031Z,33.75
2018-04-15T04:54:13.058Z,33.75
2018-04-15T04:55:13.085Z,39.38
2018-04-15T04:56:13.113Z,33.75
2018-04-15T04:57:13.140Z,33.75
2018-04-15T04:58:13.167Z,33.75
2018-04-15T04:59:13.195Z,39.38
2018-04-15T05:00:13.220Z,33.75
2018-04-15T05:01:13.247Z,22.50
2018-04-15T05:02:13.273Z,22.50
2018-04-15T05:03:13.301Z,28.13
2018-04-15T05:04:13.339Z,33.75
2018-04-15T05:05:13.356Z,39.38
2018-04-15T05:06:13.383Z,39.38
2018-04-15T05:07:13.410Z,39.38
2018-04-15T05:08:13.437Z,39.38
2018-04-15T05:09:13.464Z,39.38
2018-04-15T05:10:13.492Z,39.38
2018-04-15T05:11:13.518Z,39.38
2018-04-15T05:12:13.544Z,39.38
2018-04-15T05:13:13.573Z,33.75
2018-04-15T05:14:13.598Z,33.75
2018-04-15T05:15:13.626Z,33.75
2018-04-15T05:16:13.690Z,28.13
2018-04-15T05:17:13.680Z,28.13
2018-04-15T05:18:13.706Z,22.50
2018-04-15T05:19:13.734Z,22.50
2018-04-15T05:20:13.761Z,22.50
2018-04-15T05:21:13.789Z,22.50
2018-04-15T05:22:13.818Z,22.50
2018-04-15T05:23:13.842Z,22.50
2018-04-15T05:24:13.897Z,22.50
2018-04-15T05:25:13.897Z,22.50
2018-04-15T05:26:13.923Z,22.50
2018-04-15T05:27:13.951Z,22.50
2018-04-15T05:28:13.978Z,22.50
2018-04-15T05:29:14.005Z,22.50
2018-04-15T05:30:14.032Z,22.50
2018-04-15T05:31:14.058Z,22.50
2018-04-15T05:32:14.089Z,22.50
2018-04-15T05:33:14.116Z,22.50
2018-04-15T05:34:14.139Z,22.50
2018-04-15T05:35:14.167Z,22.50
2018-04-15T05:36:14.199Z,22.50
2018-04-15T05:37:14.224Z,22.50
2018-04-15T05:38:14.248Z,22.50
2018-04-15T05:39:14.294Z,22.50
2018-04-15T05:40:14.304Z,22.50
2018-04-15T05:41:14.330Z,22.50
2018-04-15T05:42:14.356Z,22.50
2018-04-15T05:43:14.407Z,22.50
2018-04-15T05:44:14.412Z,22.50
2018-04-15T05:45:14.439Z,22.50
2018-04-15T05:46:14.466Z,22.50
2018-04-15T05:47:14.491Z,22.50
2018-04-15T05:48:14.528Z,22.50
2018-04-15T05:49:14.546Z,22.50
2018-04-15T05:50:14.583Z,22.50
2018-04-15T05:51:14.600Z,22.50
2018-04-15T05:52:14.628Z,22.50
2018-04-15T05:53:14.657Z,22.50
2018-04-15T05:54:14.682Z,22.50
2018-04-15T05:55:14.708Z,22.50
2018-04-15T05:56:14.765Z,22.50
2018-04-15T05:57:14.764Z,22.50
2018-04-15T05:58:14.789Z,22.50
2018-04-15T05:59:14.816Z,22.50
2018-04-15T06:00:14.844Z,22.50
2018-04-15T06:01:14.871Z,22.50
2018-04-15T06:02:14.898Z,22.50
2018-04-15T06:03:14.925Z,22.50
2018-04-15T06:04:14.954Z,22.50
2018-04-15T06:05:15.023Z,22.50
2018-04-15T06:06:15.006Z,22.50
2018-04-15T06:07:15.052Z,22.50
2018-04-15T06:08:15.060Z,22.50
2018-04-15T06:09:15.088Z,22.50
2018-04-15T06:10:15.114Z,22.50
2018-04-15T06:11:15.141Z,28.13
2018-04-15T06:12:15.171Z,28.13
2018-04-15T06:13:15.197Z,28.13
2018-04-15T06:14:15.222Z,28.13
2018-04-15T06:15:15.250Z,28.13
2018-04-15T06:16:15.316Z,28.13
2018-04-15T06:17:15.307Z,28.13
2018-04-15T06:18:15.331Z,28.13
2018-04-15T06:19:15.359Z,28.13
2018-04-15T06:20:15.386Z,28.13
2018-04-15T06:21:15.414Z,28.13
2018-04-15T06:22:15.440Z,28.13
2018-04-15T06:23:15.468Z,28.13
2018-04-15T06:24:15.496Z,28.13
2018-04-15T06:25:15.522Z,28.13
2018-04-15T06:26:15.572Z,28.13
2018-04-15T06:27:15.576Z,28.13
2018-04-15T06:28:15.629Z,22.50
2018-04-15T06:29:15.630Z,22.50
2018-04-15T06:30:15.703Z,22.50
2018-04-15T06:31:15.685Z,22.50
2018-04-15T06:32:15.720Z,22.50
2018-04-15T06:33:15.739Z,22.50
2018-04-15T06:34:15.765Z,22.50
2018-04-15T06:35:15.809Z,22.50
2018-04-15T06:36:15.819Z,22.50
2018-04-15T06:37:15.847Z,22.50
2018-04-15T06:38:15.873Z,22.50
2018-04-15T06:39:15.900Z,22.50
2018-04-15T06:40:15.927Z,22.50
2018-04-15T06:41:15.956Z,22.50
2018-04-15T06:42:15.982Z,22.50
2018-04-15T06:43:16.008Z,22.50
2018-04-15T06:44:16.037Z,22.50
2018-04-15T06:45:16.126Z,22.50
2018-04-15T06:46:16.089Z,22.50
2018-04-15T06:47:16.116Z,22.50
2018-04-15T06:48:16.145Z,22.50
2018-04-15T06:49:16.197Z,22.50
2018-04-15T06:50:16.198Z,22.50
2018-04-15T06:51:16.260Z,22.50
2018-04-15T06:52:16.252Z,22.50
2018-04-15T06:53:16.316Z,22.50
2018-04-15T06:54:16.306Z,22.50
2018-04-15T06:55:16.334Z,22.50
2018-04-15T06:56:16.361Z,22.50
2018-04-15T06:57:16.388Z,22.50
2018-04-15T06:58:16.415Z,22.50
2018-04-15T06:59:16.442Z,22.50
2018-04-15T07:00:16.469Z,22.50
2018-04-15T07:01:16.498Z,22.50
2018-04-15T07:02:16.523Z,22.50
2018-04-15T07:03:16.549Z,22.50
2018-04-15T07:04:16.579Z,22.50
2018-04-15T07:05:16.605Z,22.50
2018-04-15T07:06:16.631Z,22.50
2018-04-15T07:07:16.658Z,22.50
2018-04-15T07:08:16.686Z,22.50
2018-04-15T07:09:16.713Z,22.50
2018-04-15T07:10:16.742Z,22.50
2018-04-15T07:11:16.767Z,22.50
2018-04-15T07:12:16.806Z,22.50
2018-04-15T07:13:16.821Z,22.50
2018-04-15T07:14:16.868Z,22.50
2018-04-15T07:15:16.875Z,22.50
2018-04-15T07:16:16.904Z,22.50
2018-04-15T07:17:16.933Z,22.50
2018-04-15T07:18:16.956Z,22.50
2018-04-15T07:19:16.984Z,22.50
2018-04-15T07:20:17.012Z,22.50
2018-04-15T07:21:17.039Z,22.50
2018-04-15T07:22:17.066Z,22.50
2018-04-15T07:23:17.093Z,22.50
2018-04-15T07:24:17.120Z,22.50
2018-04-15T07:25:17.147Z,22.50
2018-04-15T07:26:17.184Z,22.50
2018-04-15T07:27:17.202Z,22.50
2018-04-15T07:28:17.228Z,22.50
2018-04-15T07:29:17.258Z,22.50
2018-04-15T07:30:17.282Z,22.50
2018-04-15T07:31:17.310Z,22.50
2018-04-15T07:32:17.375Z,22.50
2018-04-15T07:33:17.364Z,22.50
2018-04-15T07:34:17.390Z,22.50
2018-04-15T07:35:17.418Z,22.50
2018-04-15T07:36:17.445Z,22.50
2018-04-15T07:37:17.472Z,22.50
2018-04-15T07:38:17.499Z,22.50
2018-04-15T07:39:17.533Z,22.50
2018-04-15T07:40:17.553Z,22.50
2018-04-15T07:41:17.581Z,22.50
2018-04-15T07:42:17.607Z,22.50
2018-04-15T07:43:17.700Z,22.50
2018-04-15T07:44:17.662Z,22.50
2018-04-15T07:45:17.689Z,22.50
2018-04-15T07:46:17.731Z,22.50
2018-04-15T07:47:17.743Z,22.50
2018-04-15T07:48:17.808Z,22.50
2018-04-15T07:49:17.797Z,22.50
2018-04-15T07:50:17.823Z,22.50
2018-04-15T07:51:17.851Z,22.50
2018-04-15T07:52:17.879Z,22.50
2018-04-15T07:53:17.905Z,22.50
2018-04-15T07:54:17.933Z,22.50
2018-04-15T07:55:17.959Z,22.50
2018-04-15T07:56:18.061Z,22.50
2018-04-15T07:57:18.014Z,22.50
2018-04-15T07:58:18.041Z,22.50
2018-04-15T07:59:18.101Z,22.50
2018-04-15T08:00:18.095Z,22.50
2018-04-15T08:01:18.122Z,22.50
2018-04-15T08:02:18.207Z,22.50
2018-04-15T08:03:18.176Z,22.50
2018-04-15T08:04:18.204Z,22.50
2018-04-15T08:05:18.231Z,22.50
2018-04-15T08:06:18.257Z,22.50
2018-04-15T08:07:18.284Z,22.50
2018-04-15T08:08:18.318Z,22.50
2018-04-15T08:09:18.340Z,22.50
2018-04-15T08:10:18.366Z,22.50
2018-04-15T08:11:18.395Z,22.50
2018-04-15T08:12:18.421Z,22.50
2018-04-15T08:13:18.449Z,22.50
2018-04-15T08:14:18.477Z,22.50
2018-04-15T08:15:18.501Z,22.50
2018-04-15T08:16:18.529Z,22.50
2018-04-15T08:17:18.556Z,22.50
2018-04-15T08:18:18.583Z,22.50
2018-04-15T08:19:18.609Z,22.50
2018-04-15T08:20:18.638Z,22.50
2018-04-15T08:21:18.665Z,22.50
2018-04-15T08:22:18.691Z,16.88
2018-04-15T08:23:18.718Z,16.88
2018-04-15T08:24:18.747Z,16.88
2018-04-15T08:25:18.774Z,22.50
2018-04-15T08:26:18.799Z,16.88
2018-04-15T08:27:18.870Z,16.88
2018-04-15T08:28:18.854Z,16.88
2018-04-15T08:29:18.883Z,16.88
2018-04-15T08:30:18.907Z,16.88
2018-04-15T08:31:18.957Z,16.88
2018-04-15T08:32:18.962Z,16.88
2018-04-15T08:33:18.989Z,16.88
2018-04-15T08:34:19.054Z,16.88
2018-04-15T08:35:19.043Z,16.88
2018-04-15T08:36:19.072Z,16.88
2018-04-15T08:37:19.098Z,16.88
2018-04-15T08:38:19.123Z,16.88
2018-04-15T08:39:19.151Z,16.88
2018-04-15T08:40:19.183Z,16.88
2018-04-15T08:41:19.246Z,16.88
2018-04-15T08:42:19.231Z,16.88
2018-04-15T08:43:19.305Z,16.88
2018-04-15T08:44:19.287Z,16.88
2018-04-15T08:45:19.314Z,16.88
2018-04-15T08:46:19.340Z,16.88
2018-04-15T08:47:19.368Z,16.88
2018-04-15T08:48:19.396Z,16.88
2018-04-15T08:49:19.423Z,16.88
2018-04-15T08:50:19.449Z,16.88
2018-04-15T08:51:19.477Z,16.88
2018-04-15T08:52:19.504Z,16.88
2018-04-15T08:53:19.531Z,16.88
2018-04-15T08:54:19.557Z,16.88
2018-04-15T08:55:19.584Z,16.88
2018-04-15T08:56:19.611Z,16.88
2018-04-15T08:57:19.645Z,16.88
2018-04-15T08:58:19.665Z,16.88
2018-04-15T08:59:19.695Z,16.88
2018-04-15T09:00:19.751Z,16.88
2018-04-15T09:01:19.747Z,16.88
2018-04-15T09:02:19.774Z,16.88
2018-04-15T09:03:19.801Z,16.88
2018-04-15T09:04:19.935Z,16.88
2018-04-15T09:05:19.883Z,16.88
2018-04-15T09:06:19.882Z,16.88
2018-04-15T09:07:19.909Z,16.88
2018-04-15T09:08:19.937Z,16.88
2018-04-15T09:09:19.964Z,16.88
2018-04-15T09:10:19.989Z,16.88
2018-04-15T09:11:20.019Z,16.88
2018-04-15T09:12:20.044Z,16.88
2018-04-15T09:13:20.073Z,16.88
2018-04-15T09:14:20.105Z,16.88
2018-04-15T09:15:20.126Z,16.88
2018-04-15T09:16:20.153Z,16.88
2018-04-15T09:17:20.196Z,16.88
2018-04-15T09:18:20.206Z,16.88
2018-04-15T09:19:20.233Z,16.88
2018-04-15T09:20:20.261Z,16.88
2018-04-15T09:21:20.290Z,16.88
2018-04-15T09:22:20.383Z,16.88
2018-04-15T09:23:20.393Z,16.88
2018-04-15T09:24:20.371Z,16.88
2018-04-15T09:25:20.397Z,16.88
2018-04-15T09:26:20.447Z,16.88
2018-04-15T09:27:20.451Z,16.88
2018-04-15T09:28:20.478Z,16.88
2018-04-15T09:29:20.526Z,16.88
2018-04-15T09:30:20.531Z,16.88
2018-04-15T09:31:20.588Z,16.88
2018-04-15T09:32:20.586Z,16.88
2018-04-15T09:33:20.613Z,16.88
2018-04-15T09:34:20.640Z,16.88
2018-04-15T09:35:20.667Z,16.88
2018-04-15T09:36:20.694Z,16.88
2018-04-15T09:37:20.721Z,16.88
2018-04-15T09:38:20.747Z,16.88
2018-04-15T09:39:20.775Z,16.88
2018-04-15T09:40:20.802Z,16.88
2018-04-15T09:41:20.829Z,16.88
2018-04-15T09:42:20.858Z,16.88
2018-04-15T09:43:20.887Z,16.88
2018-04-15T09:44:20.910Z,16.88
2018-04-15T09:45:20.943Z,16.88
2018-04-15T09:46:21.010Z,16.88
2018-04-15T09:47:20.991Z,16.88
2018-04-15T09:48:21.018Z,16.88
2018-04-15T09:49:21.046Z,16.88
2018-04-15T09:50:21.072Z,16.88
2018-04-15T09:51:21.121Z,16.88
2018-04-15T09:52:21.127Z,16.88
2018-04-15T09:53:21.168Z,16.88
2018-04-15T09:54:21.184Z,16.88
2018-04-15T09:55:21.206Z,16.88
2018-04-15T09:56:21.234Z,16.88
2018-04-15T09:57:21.263Z,16.88
2018-04-15T09:58:21.312Z,16.88
2018-04-15T09:59:21.318Z,16.88
2018-04-15T10:00:21.342Z,16.88
2018-04-15T10:01:21.370Z,16.88
2018-04-15T10:02:21.396Z,16.88
2018-04-15T10:03:21.458Z,16.88
2018-04-15T10:04:21.482Z,16.88
2018-04-15T10:05:21.513Z,16.88
2018-04-15T10:06:21.505Z,16.88
2018-04-15T10:07:21.532Z,16.88
2018-04-15T10:08:21.560Z,16.88
2018-04-15T10:09:21.587Z,16.88
2018-04-15T10:10:21.613Z,16.88
2018-04-15T10:11:21.640Z,16.88
2018-04-15T10:12:21.670Z,16.88
2018-04-15T10:13:21.694Z,16.88
2018-04-15T10:14:21.721Z,16.88
2018-04-15T10:15:21.749Z,16.88
2018-04-15T10:16:21.776Z,16.88
2018-04-15T10:17:21.827Z,16.88
2018-04-15T10:18:21.830Z,16.88
2018-04-15T10:19:21.861Z,16.88
2018-04-15T10:20:21.884Z,16.88
2018-04-15T10:21:21.912Z,16.88
2018-04-15T10:22:21.938Z,16.88
2018-04-15T10:23:21.966Z,16.88
2018-04-15T10:24:21.993Z,16.88
2018-04-15T10:25:22.020Z,16.88
2018-04-15T10:26:22.053Z,16.88
2018-04-15T10:27:22.074Z,16.88
2018-04-15T10:28:22.101Z,16.88
2018-04-15T10:29:22.130Z,16.88
2018-04-15T10:30:22.159Z,16.88
2018-04-15T10:31:22.183Z,16.88
2018-04-15T10:32:22.210Z,16.88
2018-04-15T10:33:22.237Z,16.88
2018-04-15T10:34:22.263Z,16.88
2018-04-15T10:35:22.291Z,16.88
2018-04-15T10:36:22.318Z,16.88
2018-04-15T10:37:22.381Z,16.88
2018-04-15T10:38:22.394Z,16.88
2018-04-15T10:39:22.400Z,16.88
2018-04-15T10:40:22.428Z,16.88
2018-04-15T10:41:22.456Z,16.88
2018-04-15T10:42:22.482Z,16.88
2018-04-15T10:43:22.509Z,16.88
2018-04-15T10:44:22.537Z,16.88
2018-04-15T10:45:22.577Z,16.88
2018-04-15T10:46:22.590Z,16.88
2018-04-15T10:47:22.619Z,16.88
2018-04-15T10:48:22.659Z,16.88
2018-04-15T10:49:22.672Z,16.88
2018-04-15T10:50:22.699Z,16.88
2018-04-15T10:51:22.730Z,11.25
2018-04-15T10:52:22.753Z,11.25
2018-04-15T10:53:22.781Z,11.25
2018-04-15T10:54:22.808Z,11.25
2018-04-15T10:55:22.838Z,11.25
2018-04-15T10:56:22.863Z,11.25
2018-04-15T10:57:22.889Z,11.25
2018-04-15T10:58:22.916Z,11.25
2018-04-15T10:59:22.943Z,11.25
2018-04-15T11:00:22.970Z,11.25
2018-04-15T11:01:22.998Z,11.25
2018-04-15T11:02:23.024Z,11.25
2018-04-15T11:03:23.052Z,11.25
2018-04-15T11:04:23.079Z,11.25
2018-04-15T11:05:23.108Z,11.25
2018-04-15T11:06:23.138Z,11.25
2018-04-15T11:07:23.160Z,11.25
2018-04-15T11:08:23.188Z,11.25
2018-04-15T11:09:23.215Z,11.25
2018-04-15T11:10:23.242Z,11.25
2018-04-15T11:11:23.268Z,11.25
2018-04-15T11:12:23.297Z,11.25
2018-04-15T11:13:23.323Z,11.25
2018-04-15T11:14:23.350Z,11.25
2018-04-15T11:15:23.423Z,11.25
2018-04-15T11:16:23.446Z,11.25
2018-04-15T11:17:23.432Z,11.25
2018-04-15T11:18:23.475Z,11.25
2018-04-15T11:19:23.485Z,11.25
2018-04-15T11:20:23.512Z,11.25
2018-04-15T11:21:23.540Z,11.25
2018-04-15T11:22:23.572Z,11.25
2018-04-15T11:23:23.594Z,11.25
2018-04-15T11:24:23.621Z,11.25
2018-04-15T11:25:23.674Z,11.25
2018-04-15T11:26:23.674Z,11.25
2018-04-15T11:27:23.702Z,11.25
2018-04-15T11:28:23.729Z,11.25
2018-04-15T11:29:23.756Z,11.25
2018-04-15T11:30:23.783Z,11.25
2018-04-15T11:31:23.810Z,11.25
2018-04-15T11:32:23.837Z,11.25
2018-04-15T11:33:23.864Z,11.25
2018-04-15T11:34:23.892Z,11.25
2018-04-15T11:35:23.919Z,11.25
2018-04-15T11:36:23.950Z,11.25
2018-04-15T11:37:23.972Z,11.25
2018-04-15T11:38:24.047Z,11.25
2018-04-15T11:39:24.027Z,11.25
2018-04-15T11:40:24.056Z,11.25
2018-04-15T11:41:24.083Z,11.25
2018-04-15T11:42:24.108Z,11.25
2018-04-15T11:43:24.135Z,11.25
2018-04-15T11:44:24.166Z,11.25
2018-04-15T11:45:24.194Z,11.25
2018-04-15T11:46:24.218Z,11.25
2018-04-15T11:47:24.243Z,11.25
2018-04-15T11:48:24.271Z,11.25
2018-04-15T11:49:24.322Z,11.25
2018-04-15T11:50:24.346Z,11.25
2018-04-15T11:51:24.402Z,11.25
2018-04-15T11:52:24.379Z,11.25
2018-04-15T11:53:24.406Z,11.25
2018-04-15T11:54:24.435Z,11.25
2018-04-15T11:55:24.460Z,11.25
2018-04-15T11:56:24.487Z,11.25
2018-04-15T11:57:24.515Z,11.25
2018-04-15T11:58:24.541Z,11.25
2018-04-15T11:59:24.568Z,11.25
2018-04-15T12:00:24.596Z,11.25
2018-04-15T12:01:24.623Z,11.25
2018-04-15T12:02:24.650Z,11.25
2018-04-15T12:03:24.676Z,11.25
2018-04-15T12:04:24.735Z,11.25
2018-04-15T12:05:24.731Z,11.25
2018-04-15T12:06:24.758Z,11.25
2018-04-15T12:07:24.785Z,11.25
2018-04-15T12:08:24.812Z,11.25
2018-04-15T12:09:24.843Z,11.25
2018-04-15T12:10:24.866Z,11.25
2018-04-15T12:11:24.902Z,11.25
2018-04-15T12:12:24.920Z,11.25
2018-04-15T12:13:24.952Z,11.25
2018-04-15T12:14:24.977Z,11.25
2018-04-15T12:15:25.002Z,11.25
2018-04-15T12:16:25.029Z,11.25
2018-04-15T12:17:25.057Z,11.25
2018-04-15T12:18:25.083Z,11.25
2018-04-15T12:19:25.110Z,11.25
2018-04-15T12:20:25.137Z,11.25
2018-04-15T12:21:25.165Z,11.25
2018-04-15T12:22:25.193Z,11.25
2018-04-15T12:23:25.221Z,11.25
2018-04-15T12:24:25.247Z,11.25
2018-04-15T12:25:25.274Z,11.25
2018-04-15T12:26:25.301Z,11.25
2018-04-15T12:27:25.328Z,11.25
2018-04-15T12:28:25.356Z,11.25
2018-04-15T12:29:25.383Z,11.25
2018-04-15T12:30:25.410Z,11.25
2018-04-15T12:31:25.437Z,11.25
2018-04-15T12:32:25.468Z,11.25
2018-04-15T12:33:25.492Z,11.25
2018-04-15T12:34:25.518Z,11.25
2018-04-15T12:35:25.545Z,11.25
2018-04-15T12:36:25.573Z,11.25
2018-04-15T12:37:25.600Z,11.25
2018-04-15T12:38:25.626Z,11.25
2018-04-15T12:39:25.659Z,11.25
2018-04-15T12:40:25.702Z,11.25
2018-04-15T12:41:25.709Z,11.25
2018-04-15T12:42:25.735Z,11.25
2018-04-15T12:43:25.800Z,11.25
2018-04-15T12:44:25.791Z,11.25
2018-04-15T12:45:25.826Z,11.25
2018-04-15T12:46:25.844Z,11.25
2018-04-15T12:47:25.871Z,11.25
2018-04-15T12:48:25.899Z,11.25
2018-04-15T12:49:25.927Z,11.25
2018-04-15T12:50:25.965Z,11.25
2018-04-15T12:51:25.981Z,11.25
2018-04-15T12:52:26.007Z,11.25
2018-04-15T12:53:26.036Z,11.25
2018-04-15T12:54:26.060Z,11.25
2018-04-15T12:55:26.090Z,11.25
2018-04-15T12:56:26.115Z,11.25
2018-04-15T12:57:26.143Z,11.25
2018-04-15T12:58:26.169Z,11.25
2018-04-15T12:59:26.233Z,11.25